Weather at Sarıbük Border Post Helipad

Public forecast

Using degrees Celsius for public forecast. Weather courtesy of forecast.io.

Closest aviation weather report (METAR) to Sarıbük Border Post Helipad

Closest report is Hatay Airport, 22.5 nm (41.6 km) N. Retrieved 2022/01/27 07:50 UTC (51 minutes ago):

LTDA 270750Z 32014KT 9999 SCT020 BKN070 07/02 Q1013 NOSIG

Closest aviation forecast (TAF) to Sarıbük Border Post Helipad

Closest forecast is Bassel Al-Assad International Airport, 40.0 nm (74.2 km) SSW. Retrieved 2022/01/27 06:36 UTC (2 hours ago):

TAF TAF OSLK 270500Z 2706/2806 33008KT 9999 FEW026TCU SCT030 BKN100 TEMPO 2718/2720 24009G18KT 6000TS SHRA FEW026CB SCT030 BKN100